首页
METAR-TAF:

METAR-TAF

机场 :

布拉提斯拉瓦機場

布拉迪斯拉发, 斯洛伐克

纬度: 48-12N, 经度: 017-12E, 海拔: 133米

当前天气观测

该预报发布于10分钟前的15:30 UTC
风速7节,风向东北
温度 3°C
湿度 93%
气压 1012 hPa
能见度10公里或以上
1500米以下无云,无积雨云

METAR: LZIB 151530Z 04007KT CAVOK 03/02 Q1012 R88/CLRD// NOSIG

时间: 16:40 (15:40 UTC)

预报

该预报发布于4小时和40分钟前的11:00 UTC
预报有效从15日的 12点(UTC)到 16日的 12点(UTC)
风速6节,风向东北
能见度10公里或以上
1500米以下无云,无积雨云
成为
从 15日的 12点(UTC)到 15日的 14点(UTC)
能见度10公里或以上
少量云层高于4500英尺
散云层高于9000英尺
成为
从 15日的 19点(UTC)到 15日的 21点(UTC)
能見度: 4000
散云层高于500英尺
轻雾
成为
从 15日的 21点(UTC)到 15日的 23点(UTC)
风速2节,风向多变
能見度: 1400
短暂存在
从 16日的 00点(UTC)到 16日的 08点(UTC)
能見度: 0300
阴天层高于100英尺

TAF: LZIB 151100Z 1512/1612 04006KT CAVOK BECMG 1512/1514 9999 FEW045 SCT090 BECMG 1519/1521 4000 BR SCT005 BECMG 1521/1523 VRB02KT 1400 TEMPO 1600/1608 0300 FG OVC001

超过4000个机场的气象观测和天气预报(METAR&TAF报告)。

可查询的气象台以黄色和红色小点在地图上表示。

将鼠标移到小点上方,可查看气象台名称。

然后点击查看天气观测和预报。

如需切换地图:点击带黑十字的绿色按钮放大地图;点击带横线的绿色按钮缩小地图;或者点击绿色箭头查看邻近地区的地图。


METAR-TAF: